createdAt,value
2018-08-04T00:01:17.774Z,6.53
2018-08-04T00:03:46.314Z,6.30
2018-08-04T00:06:14.912Z,6.30
2018-08-04T00:08:43.458Z,6.10
2018-08-04T00:11:12.035Z,6.47
2018-08-04T00:13:40.527Z,6.40
2018-08-04T00:16:09.086Z,6.30
2018-08-04T00:18:37.633Z,6.37
2018-08-04T00:21:06.267Z,6.47
2018-08-04T00:23:34.869Z,6.17
2018-08-04T00:26:03.480Z,5.30
2018-08-04T00:28:32.053Z,6.07
2018-08-04T00:31:01.780Z,6.17
2018-08-04T00:33:30.354Z,6.20
2018-08-04T00:35:58.891Z,6.37
2018-08-04T00:38:27.427Z,6.37
2018-08-04T00:40:55.997Z,5.97
2018-08-04T00:43:24.565Z,6.73
2018-08-04T00:45:53.163Z,6.03
2018-08-04T00:48:21.718Z,5.70
2018-08-04T00:50:50.274Z,6.37
2018-08-04T00:53:18.810Z,6.97
2018-08-04T00:55:47.352Z,5.90
2018-08-04T00:58:15.888Z,6.13
2018-08-04T01:00:44.479Z,7.17
2018-08-04T01:03:12.992Z,6.03
2018-08-04T01:05:41.510Z,6.47
2018-08-04T01:08:10.031Z,6.20
2018-08-04T01:10:38.631Z,6.27
2018-08-04T01:13:07.211Z,6.70
2018-08-04T01:15:35.811Z,5.87
2018-08-04T01:18:04.409Z,6.53
2018-08-04T01:20:32.992Z,6.30
2018-08-04T01:23:01.567Z,6.37
2018-08-04T01:25:30.083Z,6.03
2018-08-04T01:27:58.606Z,6.13
2018-08-04T01:30:27.119Z,6.30
2018-08-04T01:32:55.664Z,6.70
2018-08-04T01:35:24.245Z,6.40
2018-08-04T01:37:52.803Z,5.80
2018-08-04T01:40:21.349Z,5.57
2018-08-04T01:42:49.986Z,5.30
2018-08-04T01:45:18.533Z,6.10
2018-08-04T01:47:47.115Z,6.37
2018-08-04T01:50:15.682Z,5.90
2018-08-04T01:52:44.237Z,5.93
2018-08-04T01:55:12.848Z,5.60
2018-08-04T01:57:41.433Z,5.50
2018-08-04T02:00:10.386Z,5.37
2018-08-04T02:02:39.140Z,6.10
2018-08-04T02:05:07.715Z,5.73
2018-08-04T02:07:36.278Z,5.70
2018-08-04T02:10:04.974Z,6.40
2018-08-04T02:12:33.657Z,5.47
2018-08-04T02:15:02.276Z,6.43
2018-08-04T02:17:30.848Z,5.83
2018-08-04T02:19:59.391Z,6.57
2018-08-04T02:22:27.987Z,7.50
2018-08-04T02:24:56.590Z,6.50
2018-08-04T02:27:25.295Z,6.40
2018-08-04T02:29:53.835Z,6.67
2018-08-04T02:32:22.408Z,5.83
2018-08-04T02:34:51.006Z,6.67
2018-08-04T02:37:19.560Z,6.23
2018-08-04T02:39:48.104Z,6.17
2018-08-04T02:42:16.680Z,6.20
2018-08-04T02:44:45.212Z,6.27
2018-08-04T02:47:13.771Z,6.80
2018-08-04T02:49:42.312Z,6.40
2018-08-04T02:52:10.863Z,6.03
2018-08-04T02:54:39.439Z,7.43
2018-08-04T02:57:08.023Z,6.93
2018-08-04T02:59:36.618Z,6.83
2018-08-04T03:02:05.281Z,6.90
2018-08-04T03:04:33.896Z,6.90
2018-08-04T03:07:02.626Z,6.97
2018-08-04T03:09:31.181Z,6.90
2018-08-04T03:11:59.740Z,6.83
2018-08-04T03:14:28.281Z,6.70
2018-08-04T03:16:56.846Z,7.73
2018-08-04T03:19:25.467Z,7.00
2018-08-04T03:21:54.111Z,6.97
2018-08-04T03:24:22.927Z,7.20
2018-08-04T03:26:51.488Z,7.20
2018-08-04T03:29:20.039Z,6.50
2018-08-04T03:31:48.587Z,6.60
2018-08-04T03:34:17.154Z,7.50
2018-08-04T03:36:45.691Z,6.07
2018-08-04T03:39:14.256Z,6.90
2018-08-04T03:41:42.848Z,6.50
2018-08-04T03:44:11.404Z,6.40
2018-08-04T03:46:39.951Z,6.70
2018-08-04T03:49:08.542Z,6.33
2018-08-04T03:51:37.182Z,6.43
2018-08-04T03:54:05.770Z,6.50
2018-08-04T03:56:34.317Z,7.17
2018-08-04T03:59:02.919Z,6.43
2018-08-04T04:01:31.469Z,7.30
2018-08-04T04:04:00.007Z,6.43
2018-08-04T04:06:28.542Z,6.67
2018-08-04T04:08:57.090Z,6.20
2018-08-04T04:11:25.655Z,6.60
2018-08-04T04:13:54.212Z,6.37
2018-08-04T04:16:22.805Z,6.83
2018-08-04T04:18:51.356Z,6.17
2018-08-04T04:21:19.895Z,6.47
2018-08-04T04:23:48.422Z,7.03
2018-08-04T04:26:16.923Z,6.33
2018-08-04T04:28:45.444Z,6.40
2018-08-04T04:31:13.976Z,6.53
2018-08-04T04:33:42.497Z,6.50
2018-08-04T04:36:11.006Z,7.00
2018-08-04T04:38:39.658Z,6.60
2018-08-04T04:41:08.328Z,6.47
2018-08-04T04:43:37.012Z,6.47
2018-08-04T04:46:05.762Z,6.63
2018-08-04T04:48:34.469Z,6.33
2018-08-04T04:51:03.090Z,6.00
2018-08-04T04:53:31.678Z,6.13
2018-08-04T04:56:00.220Z,5.97
2018-08-04T04:58:28.802Z,6.10
2018-08-04T05:00:57.344Z,6.13
2018-08-04T05:03:25.914Z,6.30
2018-08-04T05:05:54.794Z,6.73
2018-08-04T05:08:23.416Z,6.30
2018-08-04T05:10:51.992Z,6.53
2018-08-04T05:13:20.606Z,6.57
2018-08-04T05:15:49.093Z,6.23
2018-08-04T05:18:17.617Z,6.10
2018-08-04T05:20:46.163Z,5.87
2018-08-04T05:23:14.687Z,6.27
2018-08-04T05:25:43.215Z,5.93
2018-08-04T05:28:11.809Z,6.10
2018-08-04T05:30:40.525Z,5.87
2018-08-04T05:33:09.146Z,6.23
2018-08-04T05:35:38.080Z,5.70
2018-08-04T05:38:06.711Z,5.60
2018-08-04T05:40:35.417Z,6.77
2018-08-04T05:43:04.070Z,6.23
2018-08-04T05:45:32.820Z,6.80
2018-08-04T05:48:01.362Z,6.10
2018-08-04T05:50:29.953Z,6.10
2018-08-04T05:52:59.459Z,6.10
2018-08-04T05:55:28.021Z,5.73
2018-08-04T05:57:56.576Z,6.03
2018-08-04T06:00:25.138Z,6.40
2018-08-04T06:02:53.755Z,5.93
2018-08-04T06:05:22.379Z,5.97
2018-08-04T06:07:51.024Z,6.07
2018-08-04T06:10:19.688Z,5.37
2018-08-04T06:12:48.223Z,6.57
2018-08-04T06:15:16.793Z,5.50
2018-08-04T06:17:45.344Z,5.80
2018-08-04T06:20:13.959Z,5.53
2018-08-04T06:22:42.731Z,5.67
2018-08-04T06:25:11.397Z,5.90
2018-08-04T06:27:40.031Z,4.30
2018-08-04T06:30:09.796Z,4.87
2018-08-04T06:32:38.428Z,4.70
2018-08-04T06:35:07.144Z,4.58
2018-08-04T06:37:35.852Z,4.40
2018-08-04T06:40:04.903Z,4.35
2018-08-04T06:42:33.689Z,4.78
2018-08-04T06:45:02.330Z,4.70
2018-08-04T06:47:30.813Z,4.65
2018-08-04T06:49:59.408Z,4.25
2018-08-04T06:52:28.012Z,4.03
2018-08-04T06:54:56.603Z,4.25
2018-08-04T06:57:25.224Z,3.67
2018-08-04T06:59:53.807Z,3.58
2018-08-04T07:02:22.334Z,3.50
2018-08-04T07:04:50.978Z,4.40
2018-08-04T07:07:19.487Z,4.20
2018-08-04T07:09:48.066Z,3.22
2018-08-04T07:12:16.621Z,3.58
2018-08-04T07:14:45.224Z,3.90
2018-08-04T07:17:13.849Z,3.02
2018-08-04T07:19:42.466Z,3.62
2018-08-04T07:22:11.149Z,3.95
2018-08-04T07:24:39.748Z,3.40
2018-08-04T07:27:08.404Z,3.50
2018-08-04T07:29:37.069Z,3.58
2018-08-04T07:32:05.741Z,3.27
2018-08-04T07:34:34.512Z,3.50
2018-08-04T07:37:03.800Z,3.55
2018-08-04T07:39:32.361Z,3.87
2018-08-04T07:42:00.952Z,3.87
2018-08-04T07:44:29.541Z,3.27
2018-08-04T07:46:58.112Z,3.40
2018-08-04T07:49:26.746Z,3.70
2018-08-04T07:51:55.357Z,4.08
2018-08-04T07:54:23.870Z,3.52
2018-08-04T07:56:52.389Z,3.80
2018-08-04T07:59:20.944Z,3.30
2018-08-04T08:01:49.498Z,3.45
2018-08-04T08:04:18.035Z,3.60
2018-08-04T08:06:46.660Z,3.60
2018-08-04T08:09:15.494Z,3.70
2018-08-04T08:11:44.051Z,3.72
2018-08-04T08:14:12.630Z,3.35
2018-08-04T08:16:41.278Z,3.20
2018-08-04T08:19:10.371Z,3.90
2018-08-04T08:21:39.062Z,3.40
2018-08-04T08:24:07.792Z,3.20
2018-08-04T08:26:37.437Z,3.62
2018-08-04T08:29:06.144Z,3.37
2018-08-04T08:31:34.794Z,4.53
2018-08-04T08:34:03.679Z,3.67
2018-08-04T08:36:32.626Z,3.22
2018-08-04T08:39:01.226Z,3.35
2018-08-04T08:41:32.051Z,3.35
2018-08-04T08:44:00.610Z,3.10
2018-08-04T08:46:29.327Z,3.55
2018-08-04T08:48:57.872Z,3.65
2018-08-04T08:51:26.442Z,3.70
2018-08-04T08:53:55.068Z,3.70
2018-08-04T08:56:23.572Z,3.65
2018-08-04T08:58:52.596Z,3.92
2018-08-04T09:01:21.159Z,3.70
2018-08-04T09:03:49.714Z,3.85
2018-08-04T09:06:18.507Z,3.52
2018-08-04T09:08:47.108Z,3.65
2018-08-04T09:11:15.860Z,3.67
2018-08-04T09:13:44.983Z,3.62
2018-08-04T09:16:13.788Z,3.30
2018-08-04T09:18:42.789Z,3.67
2018-08-04T09:21:12.261Z,3.98
2018-08-04T09:23:41.062Z,4.22
2018-08-04T09:26:09.899Z,3.72
2018-08-04T09:28:38.612Z,4.20
2018-08-04T09:31:07.256Z,4.50
2018-08-04T09:33:36.117Z,4.00
2018-08-04T09:36:04.812Z,4.10
2018-08-04T09:38:33.528Z,3.65
2018-08-04T09:41:02.223Z,3.92
2018-08-04T09:43:31.420Z,4.42
2018-08-04T09:46:00.117Z,3.80
2018-08-04T09:48:28.946Z,3.77
2018-08-04T09:50:57.730Z,4.35
2018-08-04T09:53:26.525Z,3.80
2018-08-04T09:55:55.259Z,4.37
2018-08-04T09:58:24.016Z,3.65
2018-08-04T10:00:57.892Z,4.00
2018-08-04T10:03:26.951Z,4.05
2018-08-04T10:05:55.844Z,3.80
2018-08-04T10:08:24.863Z,3.85
2018-08-04T10:10:53.704Z,4.30
2018-08-04T10:13:22.750Z,4.03
2018-08-04T10:15:51.784Z,3.85
2018-08-04T10:18:22.041Z,4.25
2018-08-04T10:20:52.294Z,4.37
2018-08-04T10:23:22.787Z,4.37
2018-08-04T10:25:52.059Z,4.10
2018-08-04T10:28:22.229Z,4.22
2018-08-04T10:30:52.533Z,3.98
2018-08-04T10:33:22.849Z,4.00
2018-08-04T10:35:52.647Z,4.10
2018-08-04T10:38:23.091Z,4.15
2018-08-04T10:40:52.742Z,4.15
2018-08-04T10:43:22.329Z,4.15
2018-08-04T10:45:54.290Z,4.10
2018-08-04T10:48:23.548Z,3.90
2018-08-04T10:50:52.103Z,4.08
2018-08-04T10:53:20.659Z,4.55
2018-08-04T10:55:49.156Z,4.33
2018-08-04T10:58:17.666Z,4.70
2018-08-04T11:00:46.179Z,3.92
2018-08-04T11:03:14.711Z,4.08
2018-08-04T11:05:43.265Z,4.10
2018-08-04T11:08:16.923Z,4.00
2018-08-04T11:10:47.695Z,4.05
2018-08-04T11:13:18.026Z,4.67
2018-08-04T11:15:48.071Z,4.28
2018-08-04T11:18:17.757Z,3.67
2018-08-04T11:20:48.376Z,4.55
2018-08-04T11:23:17.592Z,4.08
2018-08-04T11:25:46.645Z,3.60
2018-08-04T11:28:16.390Z,4.72
2018-08-04T11:30:45.466Z,4.70
2018-08-04T11:33:15.749Z,4.17
2018-08-04T11:35:45.496Z,4.35
2018-08-04T11:38:14.540Z,4.37
2018-08-04T11:40:44.415Z,4.37
2018-08-04T11:43:15.369Z,5.12
2018-08-04T11:45:46.306Z,4.67
2018-08-04T11:48:16.607Z,4.42
2018-08-04T11:50:47.963Z,4.60
2018-08-04T11:53:17.665Z,4.50
2018-08-04T11:55:46.696Z,4.28
2018-08-04T11:58:15.632Z,4.00
2018-08-04T12:00:45.739Z,4.67
2018-08-04T12:03:15.324Z,4.75
2018-08-04T12:05:47.025Z,4.75
2018-08-04T12:08:16.127Z,5.03
2018-08-04T12:10:46.195Z,4.78
2018-08-04T12:13:16.608Z,4.95
2018-08-04T12:15:46.257Z,4.87
2018-08-04T12:18:15.397Z,4.20
2018-08-04T12:20:44.961Z,4.28
2018-08-04T12:23:14.176Z,4.67
2018-08-04T12:25:43.276Z,4.33
2018-08-04T12:28:12.267Z,4.78
2018-08-04T12:30:41.209Z,4.25
2018-08-04T12:33:10.051Z,4.72
2018-08-04T12:35:38.858Z,4.65
2018-08-04T12:38:07.787Z,4.75
2018-08-04T12:40:36.784Z,4.20
2018-08-04T12:43:06.203Z,4.33
2018-08-04T12:45:35.371Z,4.30
2018-08-04T12:48:04.751Z,4.10
2018-08-04T12:50:34.437Z,4.28
2018-08-04T12:53:03.611Z,4.58
2018-08-04T12:55:32.293Z,4.40
2018-08-04T12:58:01.556Z,4.40
2018-08-04T13:00:30.419Z,4.20
2018-08-04T13:02:59.403Z,4.60
2018-08-04T13:05:28.314Z,4.42
2018-08-04T13:07:57.270Z,4.75
2018-08-04T13:10:26.009Z,5.40
2018-08-04T13:12:55.729Z,5.22
2018-08-04T13:15:24.633Z,4.80
2018-08-04T13:18:00.937Z,4.95
2018-08-04T13:20:37.640Z,4.80
2018-08-04T13:23:06.281Z,4.53
2018-08-04T13:25:34.829Z,4.92
2018-08-04T13:28:03.410Z,5.35
2018-08-04T13:30:32.319Z,5.30
2018-08-04T13:33:00.899Z,5.30
2018-08-04T13:35:29.507Z,4.95
2018-08-04T13:37:58.144Z,4.92
2018-08-04T13:40:27.953Z,5.25
2018-08-04T13:42:56.786Z,5.28
2018-08-04T13:45:25.590Z,5.28
2018-08-04T13:47:54.254Z,5.75
2018-08-04T13:50:22.900Z,6.08
2018-08-04T13:52:51.460Z,5.42
2018-08-04T13:55:20.946Z,5.12
2018-08-04T13:57:50.712Z,5.20
2018-08-04T14:00:20.855Z,5.30
2018-08-04T14:02:51.213Z,5.55
2018-08-04T14:05:21.003Z,5.40
2018-08-04T14:07:51.466Z,4.83
2018-08-04T14:10:20.715Z,5.20
2018-08-04T14:12:49.800Z,5.17
2018-08-04T14:15:18.594Z,4.85
2018-08-04T14:17:47.242Z,4.28
2018-08-04T14:20:15.936Z,5.10
2018-08-04T14:22:44.979Z,5.08
2018-08-04T14:25:14.793Z,4.80
2018-08-04T14:27:45.372Z,5.05
2018-08-04T14:30:14.162Z,5.15
2018-08-04T14:32:42.991Z,4.55
2018-08-04T14:35:11.677Z,5.30
2018-08-04T14:37:40.375Z,6.12
2018-08-04T14:40:09.155Z,5.05
2018-08-04T14:42:37.894Z,5.12
2018-08-04T14:45:06.659Z,4.92
2018-08-04T14:47:35.322Z,5.20
2018-08-04T14:50:04.151Z,5.17
2018-08-04T14:52:41.746Z,4.95
2018-08-04T14:55:12.468Z,5.37
2018-08-04T14:57:41.831Z,4.95
2018-08-04T15:00:11.270Z,5.12
2018-08-04T15:02:40.049Z,5.05
2018-08-04T15:05:09.091Z,4.90
2018-08-04T15:07:37.835Z,4.92
2018-08-04T15:10:07.474Z,4.95
2018-08-04T15:12:36.470Z,5.00
2018-08-04T15:15:08.188Z,5.00
2018-08-04T15:17:37.059Z,5.28
2018-08-04T15:20:06.444Z,5.22
2018-08-04T15:22:35.396Z,5.37
2018-08-04T15:25:04.121Z,5.05
2018-08-04T15:27:33.831Z,5.65
2018-08-04T15:30:02.951Z,5.10
2018-08-04T15:32:32.214Z,5.58
2018-08-04T15:35:03.150Z,5.30
2018-08-04T15:37:34.575Z,5.95
2018-08-04T15:40:04.403Z,6.20
2018-08-04T15:42:44.730Z,6.08
2018-08-04T15:45:20.468Z,5.90
2018-08-04T15:47:55.637Z,5.80
2018-08-04T15:50:25.095Z,6.78
2018-08-04T15:52:53.982Z,6.35
2018-08-04T15:55:22.787Z,6.40
2018-08-04T15:57:51.737Z,5.67
2018-08-04T16:00:21.084Z,6.60
2018-08-04T16:02:51.119Z,6.83
2018-08-04T16:05:21.375Z,5.92
2018-08-04T16:07:50.540Z,5.83
2018-08-04T16:10:19.995Z,5.90
2018-08-04T16:12:48.597Z,6.20
2018-08-04T16:15:17.143Z,6.58
2018-08-04T16:17:45.846Z,6.22
2018-08-04T16:20:16.004Z,7.15
2018-08-04T16:22:44.686Z,9.40
2018-08-04T16:25:13.943Z,6.65
2018-08-04T16:27:42.663Z,7.47
2018-08-04T16:30:11.615Z,6.40
2018-08-04T16:32:41.018Z,16.30
2018-08-04T16:35:10.145Z,18.17
2018-08-04T16:37:38.690Z,8.45
2018-08-04T16:40:08.889Z,9.95
2018-08-04T16:42:38.881Z,9.95
2018-08-04T16:45:07.838Z,7.45
2018-08-04T16:47:36.607Z,6.87
2018-08-04T16:50:05.572Z,5.67
2018-08-04T16:52:34.414Z,5.87
2018-08-04T16:55:03.464Z,5.83
2018-08-04T16:57:32.834Z,5.58
2018-08-04T17:00:01.606Z,6.03
2018-08-04T17:02:30.372Z,5.33
2018-08-04T17:04:59.120Z,5.03
2018-08-04T17:07:27.687Z,5.35
2018-08-04T17:09:56.283Z,5.40
2018-08-04T17:12:24.870Z,6.00
2018-08-04T17:14:53.444Z,6.03
2018-08-04T17:17:21.963Z,5.85
2018-08-04T17:19:50.498Z,4.80
2018-08-04T17:22:19.151Z,5.20
2018-08-04T17:24:47.711Z,5.60
2018-08-04T17:27:16.272Z,5.70
2018-08-04T17:29:44.827Z,5.75
2018-08-04T17:32:13.424Z,5.45
2018-08-04T17:34:42.007Z,6.00
2018-08-04T17:37:10.522Z,5.58
2018-08-04T17:39:39.094Z,6.10
2018-08-04T17:42:07.663Z,5.60
2018-08-04T17:44:36.412Z,4.90
2018-08-04T17:47:05.822Z,5.58
2018-08-04T17:49:34.462Z,5.03
2018-08-04T17:52:03.010Z,5.42
2018-08-04T17:54:31.573Z,5.35
2018-08-04T17:57:00.215Z,5.58
2018-08-04T17:59:28.790Z,5.53
2018-08-04T18:01:57.298Z,5.30
2018-08-04T18:04:25.883Z,5.58
2018-08-04T18:06:54.471Z,5.08
2018-08-04T18:09:23.550Z,5.60
2018-08-04T18:11:52.245Z,5.90
2018-08-04T18:14:21.100Z,5.50
2018-08-04T18:16:49.793Z,5.47
2018-08-04T18:19:18.560Z,5.50
2018-08-04T18:21:47.425Z,5.05
2018-08-04T18:24:16.551Z,5.00
2018-08-04T18:26:45.471Z,5.00
2018-08-04T18:29:14.081Z,4.58
2018-08-04T18:31:42.710Z,4.92
2018-08-04T18:34:11.384Z,4.95
2018-08-04T18:36:40.202Z,4.85
2018-08-04T18:39:09.671Z,4.80
2018-08-04T18:41:38.355Z,4.83
2018-08-04T18:44:07.316Z,4.95
2018-08-04T18:46:36.177Z,5.22
2018-08-04T18:49:05.112Z,4.75
2018-08-04T18:51:33.992Z,5.25
2018-08-04T18:54:03.038Z,4.53
2018-08-04T18:56:32.065Z,4.50
2018-08-04T18:59:01.036Z,5.30
2018-08-04T19:01:30.333Z,4.60
2018-08-04T19:03:58.879Z,5.00
2018-08-04T19:06:28.228Z,5.15
2018-08-04T19:08:57.242Z,5.60
2018-08-04T19:11:26.993Z,5.50
2018-08-04T19:13:56.220Z,5.35
2018-08-04T19:16:26.290Z,5.17
2018-08-04T19:18:56.312Z,4.95
2018-08-04T19:21:26.259Z,5.20
2018-08-04T19:23:55.546Z,4.70
2018-08-04T19:26:24.145Z,4.28
2018-08-04T19:28:53.249Z,4.62
2018-08-04T19:31:22.547Z,3.52
2018-08-04T19:33:51.108Z,4.28
2018-08-04T19:36:19.679Z,4.83
2018-08-04T19:38:48.226Z,4.55
2018-08-04T19:41:16.805Z,4.28
2018-08-04T19:43:45.326Z,4.85
2018-08-04T19:46:13.856Z,4.10
2018-08-04T19:48:42.436Z,3.70
2018-08-04T19:51:10.976Z,3.85
2018-08-04T19:53:39.569Z,4.67
2018-08-04T19:56:08.198Z,4.05
2018-08-04T19:58:36.744Z,4.03
2018-08-04T20:01:05.295Z,3.62
2018-08-04T20:03:33.836Z,3.60
2018-08-04T20:06:02.421Z,3.70
2018-08-04T20:08:31.164Z,3.47
2018-08-04T20:10:59.735Z,3.58
2018-08-04T20:13:28.269Z,3.40
2018-08-04T20:15:56.922Z,3.70
2018-08-04T20:18:25.606Z,2.92
2018-08-04T20:20:54.163Z,3.00
2018-08-04T20:23:22.740Z,2.95
2018-08-04T20:25:51.343Z,3.13
2018-08-04T20:28:19.926Z,3.20
2018-08-04T20:30:48.459Z,2.72
2018-08-04T20:33:17.002Z,2.77
2018-08-04T20:35:46.836Z,3.00
2018-08-04T20:38:15.399Z,3.22
2018-08-04T20:40:44.000Z,3.20
2018-08-04T20:43:12.827Z,2.58
2018-08-04T20:45:41.387Z,3.37
2018-08-04T20:48:09.976Z,3.25
2018-08-04T20:50:38.552Z,3.33
2018-08-04T20:53:07.752Z,3.70
2018-08-04T20:55:36.400Z,3.50
2018-08-04T20:58:04.966Z,3.08
2018-08-04T21:00:37.957Z,3.55
2018-08-04T21:03:07.084Z,3.87
2018-08-04T21:05:35.644Z,3.70
2018-08-04T21:08:04.318Z,3.83
2018-08-04T21:10:32.892Z,4.47
2018-08-04T21:13:01.444Z,4.00
2018-08-04T21:15:29.943Z,4.30
2018-08-04T21:17:58.510Z,4.00
2018-08-04T21:20:27.006Z,4.40
2018-08-04T21:22:55.572Z,4.50
2018-08-04T21:25:24.098Z,4.22
2018-08-04T21:27:52.646Z,4.25
2018-08-04T21:30:21.392Z,4.28
2018-08-04T21:32:50.267Z,4.45
2018-08-04T21:35:19.782Z,4.20
2018-08-04T21:37:48.410Z,4.37
2018-08-04T21:40:16.948Z,4.60
2018-08-04T21:42:45.501Z,4.00
2018-08-04T21:45:14.137Z,4.30
2018-08-04T21:47:42.702Z,4.50
2018-08-04T21:50:11.231Z,4.73
2018-08-04T21:52:39.792Z,4.73
2018-08-04T21:55:08.333Z,4.63
2018-08-04T21:57:36.914Z,5.03
2018-08-04T22:00:09.203Z,4.40
2018-08-04T22:02:38.412Z,4.70
2018-08-04T22:05:07.028Z,4.50
2018-08-04T22:07:47.975Z,4.03
2018-08-04T22:10:16.690Z,3.90
2018-08-04T22:12:45.352Z,4.25
2018-08-04T22:15:15.116Z,4.17
2018-08-04T22:17:43.817Z,3.87
2018-08-04T22:20:13.679Z,4.53
2018-08-04T22:22:42.590Z,4.80
2018-08-04T22:25:12.788Z,4.10
2018-08-04T22:27:41.655Z,4.20
2018-08-04T22:30:12.084Z,4.23
2018-08-04T22:32:41.018Z,4.07
2018-08-04T22:35:09.610Z,3.83
2018-08-04T22:37:38.674Z,4.07
2018-08-04T22:40:07.924Z,4.23
2018-08-04T22:42:36.807Z,3.93
2018-08-04T22:45:16.657Z,4.73
2018-08-04T22:47:45.448Z,4.60
2018-08-04T22:50:13.964Z,3.43
2018-08-04T22:52:42.504Z,4.00
2018-08-04T22:55:11.026Z,4.57
2018-08-04T22:57:39.559Z,4.20
2018-08-04T23:00:08.109Z,4.80
2018-08-04T23:02:36.663Z,4.67
2018-08-04T23:05:05.325Z,4.80
2018-08-04T23:07:33.839Z,4.57
2018-08-04T23:10:02.372Z,4.40
2018-08-04T23:12:30.915Z,4.37
2018-08-04T23:14:59.490Z,5.37
2018-08-04T23:17:28.020Z,4.67
2018-08-04T23:19:56.550Z,5.27
2018-08-04T23:22:25.048Z,4.47
2018-08-04T23:24:53.585Z,4.70
2018-08-04T23:27:22.147Z,4.63
2018-08-04T23:29:50.649Z,5.33
2018-08-04T23:32:19.183Z,5.23
2018-08-04T23:34:47.696Z,4.43
2018-08-04T23:37:16.182Z,4.93
2018-08-04T23:39:44.709Z,5.03
2018-08-04T23:42:13.188Z,5.50
2018-08-04T23:44:41.736Z,5.83
2018-08-04T23:47:10.258Z,5.70
2018-08-04T23:49:38.800Z,5.73
2018-08-04T23:52:07.557Z,5.47
2018-08-04T23:54:36.108Z,5.60
2018-08-04T23:57:04.742Z,5.97
2018-08-04T23:59:33.377Z,5.70
